sensor_id;sensor_type;location;lat;lon;timestamp;P1;durP1;ratioP1;P2;durP2;ratioP2
3704;SDS011;1868;48.918;9.438;2023-12-04T00:02:07;16.57;;;10.07;;
3704;SDS011;1868;48.918;9.438;2023-12-04T00:04:36;13.67;;;8.53;;
3704;SDS011;1868;48.918;9.438;2023-12-04T00:07:06;15.07;;;9.47;;
3704;SDS011;1868;48.918;9.438;2023-12-04T00:09:36;11.37;;;7.67;;
3704;SDS011;1868;48.918;9.438;2023-12-04T00:12:07;14.00;;;9.20;;
3704;SDS011;1868;48.918;9.438;2023-12-04T00:14:37;14.70;;;8.57;;
3704;SDS011;1868;48.918;9.438;2023-12-04T00:17:07;10.67;;;7.60;;
3704;SDS011;1868;48.918;9.438;2023-12-04T00:19:37;12.47;;;8.60;;
3704;SDS011;1868;48.918;9.438;2023-12-04T00:22:08;12.53;;;8.43;;
3704;SDS011;1868;48.918;9.438;2023-12-04T00:24:44;13.97;;;9.10;;
3704;SDS011;1868;48.918;9.438;2023-12-04T00:27:13;14.53;;;8.63;;
3704;SDS011;1868;48.918;9.438;2023-12-04T00:29:44;12.97;;;7.43;;
3704;SDS011;1868;48.918;9.438;2023-12-04T00:32:13;13.60;;;8.43;;
3704;SDS011;1868;48.918;9.438;2023-12-04T00:34:43;14.17;;;8.83;;
3704;SDS011;1868;48.918;9.438;2023-12-04T00:37:13;12.17;;;8.63;;
3704;SDS011;1868;48.918;9.438;2023-12-04T00:39:43;15.80;;;9.90;;
3704;SDS011;1868;48.918;9.438;2023-12-04T00:42:19;11.13;;;7.37;;
3704;SDS011;1868;48.918;9.438;2023-12-04T00:44:55;16.83;;;9.33;;
3704;SDS011;1868;48.918;9.438;2023-12-04T00:47:27;12.80;;;8.37;;
3704;SDS011;1868;48.918;9.438;2023-12-04T00:49:57;12.57;;;8.53;;
3704;SDS011;1868;48.918;9.438;2023-12-04T00:52:27;10.63;;;7.57;;
3704;SDS011;1868;48.918;9.438;2023-12-04T00:54:58;14.13;;;8.30;;
3704;SDS011;1868;48.918;9.438;2023-12-04T00:57:28;12.60;;;8.37;;
3704;SDS011;1868;48.918;9.438;2023-12-04T00:59:57;12.03;;;8.97;;
3704;SDS011;1868;48.918;9.438;2023-12-04T01:02:26;14.93;;;8.67;;
3704;SDS011;1868;48.918;9.438;2023-12-04T01:04:57;12.00;;;7.60;;
3704;SDS011;1868;48.918;9.438;2023-12-04T01:07:28;13.07;;;7.47;;
3704;SDS011;1868;48.918;9.438;2023-12-04T01:09:57;13.07;;;7.90;;
3704;SDS011;1868;48.918;9.438;2023-12-04T01:12:29;11.67;;;8.00;;
3704;SDS011;1868;48.918;9.438;2023-12-04T01:15:00;15.40;;;9.70;;
3704;SDS011;1868;48.918;9.438;2023-12-04T01:17:29;13.57;;;8.70;;
3704;SDS011;1868;48.918;9.438;2023-12-04T01:19:59;13.73;;;8.67;;
3704;SDS011;1868;48.918;9.438;2023-12-04T01:22:31;13.10;;;9.03;;
3704;SDS011;1868;48.918;9.438;2023-12-04T01:25:01;13.63;;;7.63;;
3704;SDS011;1868;48.918;9.438;2023-12-04T01:27:31;12.50;;;8.57;;
3704;SDS011;1868;48.918;9.438;2023-12-04T01:30:01;11.40;;;8.50;;
3704;SDS011;1868;48.918;9.438;2023-12-04T01:32:35;16.50;;;9.13;;
3704;SDS011;1868;48.918;9.438;2023-12-04T01:35:07;17.10;;;9.90;;
3704;SDS011;1868;48.918;9.438;2023-12-04T01:37:39;14.10;;;8.60;;
3704;SDS011;1868;48.918;9.438;2023-12-04T01:40:11;15.60;;;10.00;;
3704;SDS011;1868;48.918;9.438;2023-12-04T01:42:43;17.30;;;9.40;;
3704;SDS011;1868;48.918;9.438;2023-12-04T01:45:13;14.63;;;9.03;;
3704;SDS011;1868;48.918;9.438;2023-12-04T01:47:43;17.17;;;11.10;;
3704;SDS011;1868;48.918;9.438;2023-12-04T01:50:14;15.57;;;9.53;;
3704;SDS011;1868;48.918;9.438;2023-12-04T01:52:45;13.30;;;9.20;;
3704;SDS011;1868;48.918;9.438;2023-12-04T01:55:17;15.03;;;9.00;;
3704;SDS011;1868;48.918;9.438;2023-12-04T01:57:47;16.80;;;9.37;;
3704;SDS011;1868;48.918;9.438;2023-12-04T02:00:17;13.93;;;9.77;;
3704;SDS011;1868;48.918;9.438;2023-12-04T02:02:47;15.17;;;9.63;;
3704;SDS011;1868;48.918;9.438;2023-12-04T02:05:18;14.13;;;8.57;;
3704;SDS011;1868;48.918;9.438;2023-12-04T02:07:50;13.97;;;9.33;;
3704;SDS011;1868;48.918;9.438;2023-12-04T02:10:21;14.43;;;8.00;;
3704;SDS011;1868;48.918;9.438;2023-12-04T02:12:52;13.93;;;9.10;;
3704;SDS011;1868;48.918;9.438;2023-12-04T02:15:22;11.70;;;7.87;;
3704;SDS011;1868;48.918;9.438;2023-12-04T02:17:52;13.20;;;9.03;;
3704;SDS011;1868;48.918;9.438;2023-12-04T02:20:21;14.30;;;8.87;;
3704;SDS011;1868;48.918;9.438;2023-12-04T02:23:01;11.73;;;8.27;;
3704;SDS011;1868;48.918;9.438;2023-12-04T02:25:31;14.50;;;8.40;;
3704;SDS011;1868;48.918;9.438;2023-12-04T02:28:05;10.73;;;7.53;;
3704;SDS011;1868;48.918;9.438;2023-12-04T02:30:37;13.27;;;9.10;;
3704;SDS011;1868;48.918;9.438;2023-12-04T02:33:10;16.17;;;8.60;;
3704;SDS011;1868;48.918;9.438;2023-12-04T02:35:47;12.90;;;8.33;;
3704;SDS011;1868;48.918;9.438;2023-12-04T02:38:16;17.33;;;9.23;;
3704;SDS011;1868;48.918;9.438;2023-12-04T02:40:48;13.40;;;9.40;;
3704;SDS011;1868;48.918;9.438;2023-12-04T02:43:18;12.73;;;8.90;;
3704;SDS011;1868;48.918;9.438;2023-12-04T02:45:46;14.97;;;8.77;;
3704;SDS011;1868;48.918;9.438;2023-12-04T02:48:16;13.20;;;9.07;;
3704;SDS011;1868;48.918;9.438;2023-12-04T02:50:45;11.73;;;7.70;;
3704;SDS011;1868;48.918;9.438;2023-12-04T02:53:13;12.70;;;7.93;;
3704;SDS011;1868;48.918;9.438;2023-12-04T02:55:43;16.60;;;9.50;;
3704;SDS011;1868;48.918;9.438;2023-12-04T02:58:15;11.23;;;7.50;;
3704;SDS011;1868;48.918;9.438;2023-12-04T03:00:44;12.97;;;8.00;;
3704;SDS011;1868;48.918;9.438;2023-12-04T03:03:13;15.03;;;9.47;;
3704;SDS011;1868;48.918;9.438;2023-12-04T03:05:42;12.83;;;7.73;;
3704;SDS011;1868;48.918;9.438;2023-12-04T03:08:12;14.57;;;8.47;;
3704;SDS011;1868;48.918;9.438;2023-12-04T03:10:42;14.17;;;9.00;;
3704;SDS011;1868;48.918;9.438;2023-12-04T03:13:11;13.20;;;7.73;;
3704;SDS011;1868;48.918;9.438;2023-12-04T03:15:43;13.50;;;8.23;;
3704;SDS011;1868;48.918;9.438;2023-12-04T03:18:12;12.77;;;6.83;;
3704;SDS011;1868;48.918;9.438;2023-12-04T03:20:47;12.23;;;7.53;;
3704;SDS011;1868;48.918;9.438;2023-12-04T03:23:17;12.63;;;8.20;;
3704;SDS011;1868;48.918;9.438;2023-12-04T03:25:46;15.30;;;8.77;;
3704;SDS011;1868;48.918;9.438;2023-12-04T03:28:16;13.83;;;8.53;;
3704;SDS011;1868;48.918;9.438;2023-12-04T03:30:46;17.83;;;10.23;;
3704;SDS011;1868;48.918;9.438;2023-12-04T03:33:16;13.93;;;8.00;;
3704;SDS011;1868;48.918;9.438;2023-12-04T03:35:46;14.53;;;9.20;;
3704;SDS011;1868;48.918;9.438;2023-12-04T03:38:18;11.67;;;7.67;;
3704;SDS011;1868;48.918;9.438;2023-12-04T03:40:47;13.87;;;8.07;;
3704;SDS011;1868;48.918;9.438;2023-12-04T03:43:17;15.00;;;9.17;;
3704;SDS011;1868;48.918;9.438;2023-12-04T03:45:49;15.50;;;8.93;;
3704;SDS011;1868;48.918;9.438;2023-12-04T03:48:18;14.60;;;8.27;;
3704;SDS011;1868;48.918;9.438;2023-12-04T03:50:49;13.40;;;8.30;;
3704;SDS011;1868;48.918;9.438;2023-12-04T03:53:17;9.73;;;7.40;;
3704;SDS011;1868;48.918;9.438;2023-12-04T03:55:46;9.60;;;7.67;;
3704;SDS011;1868;48.918;9.438;2023-12-04T03:58:15;10.60;;;8.03;;
3704;SDS011;1868;48.918;9.438;2023-12-04T04:00:45;10.07;;;7.13;;
3704;SDS011;1868;48.918;9.438;2023-12-04T04:03:16;14.10;;;7.93;;
3704;SDS011;1868;48.918;9.438;2023-12-04T04:05:45;13.03;;;7.70;;
3704;SDS011;1868;48.918;9.438;2023-12-04T04:08:15;14.00;;;8.90;;
3704;SDS011;1868;48.918;9.438;2023-12-04T04:10:48;11.80;;;6.60;;
3704;SDS011;1868;48.918;9.438;2023-12-04T04:13:17;11.90;;;7.40;;
3704;SDS011;1868;48.918;9.438;2023-12-04T04:15:47;11.10;;;7.10;;
3704;SDS011;1868;48.918;9.438;2023-12-04T04:18:17;14.60;;;7.70;;
3704;SDS011;1868;48.918;9.438;2023-12-04T04:20:47;10.17;;;7.07;;
3704;SDS011;1868;48.918;9.438;2023-12-04T04:23:15;12.07;;;7.43;;
3704;SDS011;1868;48.918;9.438;2023-12-04T04:25:44;9.00;;;6.70;;
3704;SDS011;1868;48.918;9.438;2023-12-04T04:28:13;10.53;;;6.90;;
3704;SDS011;1868;48.918;9.438;2023-12-04T04:30:43;9.33;;;6.70;;
3704;SDS011;1868;48.918;9.438;2023-12-04T04:33:12;8.17;;;6.23;;
3704;SDS011;1868;48.918;9.438;2023-12-04T04:35:42;14.37;;;8.10;;
3704;SDS011;1868;48.918;9.438;2023-12-04T04:38:11;8.07;;;5.93;;
3704;SDS011;1868;48.918;9.438;2023-12-04T04:40:41;8.57;;;5.10;;
3704;SDS011;1868;48.918;9.438;2023-12-04T04:43:16;9.27;;;6.37;;
3704;SDS011;1868;48.918;9.438;2023-12-04T04:45:46;8.33;;;5.80;;
3704;SDS011;1868;48.918;9.438;2023-12-04T04:48:16;10.30;;;7.10;;
3704;SDS011;1868;48.918;9.438;2023-12-04T04:50:46;9.87;;;6.87;;
3704;SDS011;1868;48.918;9.438;2023-12-04T04:53:15;9.70;;;6.50;;
3704;SDS011;1868;48.918;9.438;2023-12-04T04:55:45;9.77;;;6.67;;
3704;SDS011;1868;48.918;9.438;2023-12-04T04:58:15;10.63;;;6.37;;
3704;SDS011;1868;48.918;9.438;2023-12-04T05:00:44;9.50;;;6.57;;
3704;SDS011;1868;48.918;9.438;2023-12-04T05:03:15;9.20;;;7.40;;
3704;SDS011;1868;48.918;9.438;2023-12-04T05:05:44;10.20;;;6.97;;
3704;SDS011;1868;48.918;9.438;2023-12-04T05:08:16;8.80;;;6.30;;
3704;SDS011;1868;48.918;9.438;2023-12-04T05:10:46;11.63;;;6.80;;
3704;SDS011;1868;48.918;9.438;2023-12-04T05:13:15;10.70;;;7.53;;
3704;SDS011;1868;48.918;9.438;2023-12-04T05:15:45;13.60;;;7.20;;
3704;SDS011;1868;48.918;9.438;2023-12-04T05:18:15;10.27;;;6.57;;
3704;SDS011;1868;48.918;9.438;2023-12-04T05:20:44;16.10;;;8.03;;
3704;SDS011;1868;48.918;9.438;2023-12-04T05:23:16;12.53;;;7.63;;
3704;SDS011;1868;48.918;9.438;2023-12-04T05:25:46;11.57;;;6.80;;
3704;SDS011;1868;48.918;9.438;2023-12-04T05:28:19;9.17;;;6.73;;
3704;SDS011;1868;48.918;9.438;2023-12-04T05:30:48;8.97;;;6.93;;
3704;SDS011;1868;48.918;9.438;2023-12-04T05:33:18;10.93;;;7.13;;
3704;SDS011;1868;48.918;9.438;2023-12-04T05:36:01;9.80;;;7.37;;
3704;SDS011;1868;48.918;9.438;2023-12-04T05:38:39;11.03;;;7.53;;
3704;SDS011;1868;48.918;9.438;2023-12-04T05:41:08;13.70;;;8.20;;
3704;SDS011;1868;48.918;9.438;2023-12-04T05:43:37;12.47;;;7.17;;
3704;SDS011;1868;48.918;9.438;2023-12-04T05:46:06;10.83;;;7.83;;
3704;SDS011;1868;48.918;9.438;2023-12-04T05:48:35;14.57;;;8.00;;
3704;SDS011;1868;48.918;9.438;2023-12-04T05:51:07;12.20;;;7.17;;
3704;SDS011;1868;48.918;9.438;2023-12-04T05:53:42;8.80;;;6.83;;
3704;SDS011;1868;48.918;9.438;2023-12-04T05:56:11;9.63;;;6.70;;
3704;SDS011;1868;48.918;9.438;2023-12-04T05:58:41;8.80;;;6.63;;
3704;SDS011;1868;48.918;9.438;2023-12-04T06:01:09;7.87;;;5.73;;
3704;SDS011;1868;48.918;9.438;2023-12-04T06:03:41;11.23;;;6.40;;
3704;SDS011;1868;48.918;9.438;2023-12-04T06:06:11;10.47;;;5.60;;
3704;SDS011;1868;48.918;9.438;2023-12-04T06:08:43;9.73;;;6.47;;
3704;SDS011;1868;48.918;9.438;2023-12-04T06:11:14;17.30;;;10.20;;
3704;SDS011;1868;48.918;9.438;2023-12-04T06:13:43;16.30;;;8.90;;
3704;SDS011;1868;48.918;9.438;2023-12-04T06:16:12;20.10;;;9.07;;
3704;SDS011;1868;48.918;9.438;2023-12-04T06:18:42;13.63;;;9.60;;
3704;SDS011;1868;48.918;9.438;2023-12-04T06:21:13;9.40;;;6.80;;
3704;SDS011;1868;48.918;9.438;2023-12-04T06:23:44;14.30;;;6.33;;
3704;SDS011;1868;48.918;9.438;2023-12-04T06:26:14;11.30;;;6.97;;
3704;SDS011;1868;48.918;9.438;2023-12-04T06:28:48;8.00;;;5.37;;
3704;SDS011;1868;48.918;9.438;2023-12-04T06:31:19;6.93;;;5.03;;
3704;SDS011;1868;48.918;9.438;2023-12-04T06:33:50;5.23;;;4.73;;
3704;SDS011;1868;48.918;9.438;2023-12-04T06:36:21;11.47;;;7.07;;
3704;SDS011;1868;48.918;9.438;2023-12-04T06:38:56;8.80;;;6.20;;
3704;SDS011;1868;48.918;9.438;2023-12-04T06:41:27;10.40;;;7.40;;
3704;SDS011;1868;48.918;9.438;2023-12-04T06:43:56;9.33;;;6.27;;
3704;SDS011;1868;48.918;9.438;2023-12-04T06:46:26;8.20;;;5.77;;
3704;SDS011;1868;48.918;9.438;2023-12-04T06:48:59;6.90;;;5.33;;
3704;SDS011;1868;48.918;9.438;2023-12-04T06:51:28;9.83;;;5.80;;
3704;SDS011;1868;48.918;9.438;2023-12-04T06:54:00;5.80;;;4.27;;
3704;SDS011;1868;48.918;9.438;2023-12-04T06:56:29;8.20;;;5.60;;
3704;SDS011;1868;48.918;9.438;2023-12-04T06:58:58;7.47;;;5.23;;
3704;SDS011;1868;48.918;9.438;2023-12-04T07:01:28;7.17;;;4.50;;
3704;SDS011;1868;48.918;9.438;2023-12-04T07:03:57;6.63;;;4.27;;
3704;SDS011;1868;48.918;9.438;2023-12-04T07:06:26;6.70;;;4.90;;
3704;SDS011;1868;48.918;9.438;2023-12-04T07:08:56;7.43;;;4.70;;
3704;SDS011;1868;48.918;9.438;2023-12-04T07:11:27;4.47;;;3.83;;
3704;SDS011;1868;48.918;9.438;2023-12-04T07:13:56;4.63;;;3.70;;
3704;SDS011;1868;48.918;9.438;2023-12-04T07:16:24;5.37;;;3.83;;
3704;SDS011;1868;48.918;9.438;2023-12-04T07:18:53;5.87;;;4.30;;
3704;SDS011;1868;48.918;9.438;2023-12-04T07:21:23;5.93;;;3.77;;
3704;SDS011;1868;48.918;9.438;2023-12-04T07:23:52;6.27;;;3.80;;
3704;SDS011;1868;48.918;9.438;2023-12-04T07:26:21;5.40;;;4.10;;
3704;SDS011;1868;48.918;9.438;2023-12-04T07:28:52;4.57;;;3.93;;
3704;SDS011;1868;48.918;9.438;2023-12-04T07:31:20;5.77;;;4.50;;
3704;SDS011;1868;48.918;9.438;2023-12-04T07:33:51;10.43;;;5.57;;
3704;SDS011;1868;48.918;9.438;2023-12-04T07:36:21;7.40;;;4.70;;
3704;SDS011;1868;48.918;9.438;2023-12-04T07:38:51;7.60;;;5.60;;
3704;SDS011;1868;48.918;9.438;2023-12-04T07:41:21;8.73;;;6.87;;
3704;SDS011;1868;48.918;9.438;2023-12-04T07:43:54;8.47;;;5.83;;
3704;SDS011;1868;48.918;9.438;2023-12-04T07:46:23;5.90;;;4.87;;
3704;SDS011;1868;48.918;9.438;2023-12-04T07:48:56;8.07;;;5.70;;
3704;SDS011;1868;48.918;9.438;2023-12-04T07:51:25;8.70;;;5.43;;
3704;SDS011;1868;48.918;9.438;2023-12-04T07:53:54;8.03;;;5.00;;
3704;SDS011;1868;48.918;9.438;2023-12-04T07:56:26;4.80;;;3.90;;
3704;SDS011;1868;48.918;9.438;2023-12-04T07:58:57;6.30;;;4.33;;
3704;SDS011;1868;48.918;9.438;2023-12-04T08:01:26;8.57;;;4.63;;
3704;SDS011;1868;48.918;9.438;2023-12-04T08:03:55;8.30;;;3.97;;
3704;SDS011;1868;48.918;9.438;2023-12-04T08:06:24;4.77;;;4.07;;
3704;SDS011;1868;48.918;9.438;2023-12-04T08:08:56;6.87;;;4.40;;
3704;SDS011;1868;48.918;9.438;2023-12-04T08:11:27;4.87;;;4.07;;
3704;SDS011;1868;48.918;9.438;2023-12-04T08:13:57;5.13;;;4.63;;
3704;SDS011;1868;48.918;9.438;2023-12-04T08:16:25;6.93;;;3.60;;
3704;SDS011;1868;48.918;9.438;2023-12-04T08:18:55;7.90;;;4.27;;
3704;SDS011;1868;48.918;9.438;2023-12-04T08:21:25;5.93;;;4.70;;
3704;SDS011;1868;48.918;9.438;2023-12-04T08:23:54;7.10;;;4.23;;
3704;SDS011;1868;48.918;9.438;2023-12-04T08:26:24;5.13;;;4.17;;
3704;SDS011;1868;48.918;9.438;2023-12-04T08:28:57;6.00;;;4.37;;
3704;SDS011;1868;48.918;9.438;2023-12-04T08:31:25;7.33;;;5.03;;
3704;SDS011;1868;48.918;9.438;2023-12-04T08:33:55;6.43;;;4.50;;
3704;SDS011;1868;48.918;9.438;2023-12-04T08:36:24;4.73;;;3.97;;
3704;SDS011;1868;48.918;9.438;2023-12-04T08:39:09;4.80;;;4.07;;
3704;SDS011;1868;48.918;9.438;2023-12-04T08:41:39;5.30;;;4.30;;
3704;SDS011;1868;48.918;9.438;2023-12-04T08:44:21;5.93;;;4.60;;
3704;SDS011;1868;48.918;9.438;2023-12-04T08:46:50;6.27;;;4.20;;
3704;SDS011;1868;48.918;9.438;2023-12-04T08:49:19;7.27;;;5.17;;
3704;SDS011;1868;48.918;9.438;2023-12-04T08:51:51;5.90;;;4.50;;
3704;SDS011;1868;48.918;9.438;2023-12-04T08:54:20;4.80;;;3.90;;
3704;SDS011;1868;48.918;9.438;2023-12-04T08:56:52;8.40;;;5.57;;
3704;SDS011;1868;48.918;9.438;2023-12-04T08:59:24;5.33;;;4.40;;
3704;SDS011;1868;48.918;9.438;2023-12-04T09:01:55;5.50;;;4.37;;
3704;SDS011;1868;48.918;9.438;2023-12-04T09:04:23;6.23;;;4.23;;
3704;SDS011;1868;48.918;9.438;2023-12-04T09:06:54;7.83;;;5.97;;
3704;SDS011;1868;48.918;9.438;2023-12-04T09:09:26;6.20;;;4.40;;
3704;SDS011;1868;48.918;9.438;2023-12-04T09:11:55;8.27;;;4.63;;
3704;SDS011;1868;48.918;9.438;2023-12-04T09:14:30;8.60;;;5.47;;
3704;SDS011;1868;48.918;9.438;2023-12-04T09:17:00;7.13;;;4.30;;
3704;SDS011;1868;48.918;9.438;2023-12-04T09:19:30;4.23;;;3.83;;
3704;SDS011;1868;48.918;9.438;2023-12-04T09:21:59;4.60;;;4.10;;
3704;SDS011;1868;48.918;9.438;2023-12-04T09:24:43;6.73;;;5.00;;
3704;SDS011;1868;48.918;9.438;2023-12-04T09:27:12;8.90;;;6.17;;
3704;SDS011;1868;48.918;9.438;2023-12-04T09:29:43;7.40;;;4.90;;
3704;SDS011;1868;48.918;9.438;2023-12-04T09:32:11;5.60;;;4.67;;
3704;SDS011;1868;48.918;9.438;2023-12-04T09:34:41;7.57;;;4.73;;
3704;SDS011;1868;48.918;9.438;2023-12-04T09:37:11;5.20;;;4.00;;
3704;SDS011;1868;48.918;9.438;2023-12-04T09:39:42;5.63;;;4.20;;
3704;SDS011;1868;48.918;9.438;2023-12-04T09:42:12;5.77;;;4.77;;
3704;SDS011;1868;48.918;9.438;2023-12-04T09:44:47;6.50;;;4.83;;
3704;SDS011;1868;48.918;9.438;2023-12-04T09:47:17;8.50;;;5.37;;
3704;SDS011;1868;48.918;9.438;2023-12-04T09:49:47;7.23;;;5.33;;
3704;SDS011;1868;48.918;9.438;2023-12-04T09:52:22;6.20;;;4.63;;
3704;SDS011;1868;48.918;9.438;2023-12-04T09:54:52;8.40;;;4.87;;
3704;SDS011;1868;48.918;9.438;2023-12-04T09:57:22;7.30;;;4.73;;
3704;SDS011;1868;48.918;9.438;2023-12-04T09:59:54;5.90;;;4.40;;
3704;SDS011;1868;48.918;9.438;2023-12-04T10:02:23;5.70;;;5.00;;
3704;SDS011;1868;48.918;9.438;2023-12-04T10:04:53;6.33;;;4.80;;
3704;SDS011;1868;48.918;9.438;2023-12-04T10:07:23;5.37;;;4.50;;
3704;SDS011;1868;48.918;9.438;2023-12-04T10:09:52;6.43;;;4.70;;
3704;SDS011;1868;48.918;9.438;2023-12-04T10:12:21;5.30;;;4.50;;
3704;SDS011;1868;48.918;9.438;2023-12-04T10:15:13;52.90;;;28.40;;
3704;SDS011;1868;48.918;9.438;2023-12-04T10:17:44;7.63;;;5.63;;
3704;SDS011;1868;48.918;9.438;2023-12-04T10:20:15;9.50;;;5.80;;
3704;SDS011;1868;48.918;9.438;2023-12-04T10:22:54;5.70;;;4.73;;
3704;SDS011;1868;48.918;9.438;2023-12-04T10:25:27;7.00;;;4.27;;
3704;SDS011;1868;48.918;9.438;2023-12-04T10:28:07;8.70;;;5.90;;
3704;SDS011;1868;48.918;9.438;2023-12-04T10:30:39;6.90;;;5.10;;
3704;SDS011;1868;48.918;9.438;2023-12-04T10:33:08;9.10;;;5.50;;
3704;SDS011;1868;48.918;9.438;2023-12-04T10:35:39;9.43;;;5.07;;
3704;SDS011;1868;48.918;9.438;2023-12-04T10:38:11;6.97;;;5.47;;
3704;SDS011;1868;48.918;9.438;2023-12-04T10:40:43;7.40;;;5.27;;
3704;SDS011;1868;48.918;9.438;2023-12-04T10:43:14;9.30;;;6.30;;
3704;SDS011;1868;48.918;9.438;2023-12-04T10:45:46;8.83;;;5.90;;
3704;SDS011;1868;48.918;9.438;2023-12-04T10:48:17;9.23;;;6.27;;
3704;SDS011;1868;48.918;9.438;2023-12-04T10:50:48;8.33;;;5.33;;
3704;SDS011;1868;48.918;9.438;2023-12-04T10:53:20;7.13;;;5.13;;
3704;SDS011;1868;48.918;9.438;2023-12-04T10:55:49;7.97;;;5.87;;
3704;SDS011;1868;48.918;9.438;2023-12-04T10:58:23;8.10;;;6.23;;
3704;SDS011;1868;48.918;9.438;2023-12-04T11:00:57;6.40;;;5.40;;
3704;SDS011;1868;48.918;9.438;2023-12-04T11:03:34;10.00;;;6.10;;
3704;SDS011;1868;48.918;9.438;2023-12-04T11:06:12;8.37;;;6.20;;
3704;SDS011;1868;48.918;9.438;2023-12-04T11:08:49;8.30;;;6.33;;
3704;SDS011;1868;48.918;9.438;2023-12-04T11:11:25;7.70;;;6.00;;
3704;SDS011;1868;48.918;9.438;2023-12-04T11:14:00;7.57;;;5.97;;
3704;SDS011;1868;48.918;9.438;2023-12-04T11:16:33;7.50;;;5.97;;
3704;SDS011;1868;48.918;9.438;2023-12-04T11:19:20;9.67;;;7.23;;
3704;SDS011;1868;48.918;9.438;2023-12-04T11:21:58;9.70;;;6.33;;
3704;SDS011;1868;48.918;9.438;2023-12-04T11:24:27;10.70;;;7.43;;
3704;SDS011;1868;48.918;9.438;2023-12-04T11:26:57;10.37;;;7.07;;
3704;SDS011;1868;48.918;9.438;2023-12-04T11:29:29;8.50;;;6.17;;
3704;SDS011;1868;48.918;9.438;2023-12-04T11:32:02;10.20;;;6.90;;
3704;SDS011;1868;48.918;9.438;2023-12-04T11:34:35;13.13;;;6.57;;
3704;SDS011;1868;48.918;9.438;2023-12-04T11:37:03;8.43;;;6.10;;
3704;SDS011;1868;48.918;9.438;2023-12-04T11:39:33;9.10;;;6.77;;
3704;SDS011;1868;48.918;9.438;2023-12-04T11:42:05;9.60;;;6.70;;
3704;SDS011;1868;48.918;9.438;2023-12-04T11:44:40;9.33;;;6.60;;
3704;SDS011;1868;48.918;9.438;2023-12-04T11:47:11;11.87;;;7.07;;
3704;SDS011;1868;48.918;9.438;2023-12-04T11:49:40;10.27;;;6.90;;
3704;SDS011;1868;48.918;9.438;2023-12-04T11:52:10;8.73;;;6.53;;
3704;SDS011;1868;48.918;9.438;2023-12-04T11:54:58;9.30;;;7.00;;
3704;SDS011;1868;48.918;9.438;2023-12-04T11:57:34;9.47;;;6.87;;
3704;SDS011;1868;48.918;9.438;2023-12-04T12:00:13;8.50;;;6.33;;
3704;SDS011;1868;48.918;9.438;2023-12-04T12:03:10;8.70;;;6.07;;
3704;SDS011;1868;48.918;9.438;2023-12-04T12:05:49;9.27;;;5.90;;
3704;SDS011;1868;48.918;9.438;2023-12-04T12:08:22;9.70;;;7.20;;
3704;SDS011;1868;48.918;9.438;2023-12-04T12:10:52;10.63;;;6.97;;
3704;SDS011;1868;48.918;9.438;2023-12-04T12:13:24;8.30;;;6.60;;
3704;SDS011;1868;48.918;9.438;2023-12-04T12:15:54;10.60;;;7.10;;
3704;SDS011;1868;48.918;9.438;2023-12-04T12:18:27;10.67;;;6.70;;
3704;SDS011;1868;48.918;9.438;2023-12-04T12:20:56;8.70;;;6.93;;
3704;SDS011;1868;48.918;9.438;2023-12-04T12:23:27;8.27;;;6.77;;
3704;SDS011;1868;48.918;9.438;2023-12-04T12:25:57;7.50;;;5.40;;
3704;SDS011;1868;48.918;9.438;2023-12-04T12:28:31;8.97;;;6.43;;
3704;SDS011;1868;48.918;9.438;2023-12-04T12:31:03;9.23;;;6.63;;
3704;SDS011;1868;48.918;9.438;2023-12-04T12:33:35;11.40;;;5.90;;
3704;SDS011;1868;48.918;9.438;2023-12-04T12:36:04;9.50;;;6.27;;
3704;SDS011;1868;48.918;9.438;2023-12-04T12:38:36;8.97;;;6.97;;
3704;SDS011;1868;48.918;9.438;2023-12-04T12:41:06;13.00;;;6.90;;
3704;SDS011;1868;48.918;9.438;2023-12-04T12:43:37;12.17;;;7.20;;
3704;SDS011;1868;48.918;9.438;2023-12-04T12:46:06;9.23;;;6.90;;
3704;SDS011;1868;48.918;9.438;2023-12-04T12:48:38;9.67;;;7.07;;
3704;SDS011;1868;48.918;9.438;2023-12-04T12:51:11;10.67;;;7.67;;
3704;SDS011;1868;48.918;9.438;2023-12-04T12:53:43;8.10;;;6.00;;
3704;SDS011;1868;48.918;9.438;2023-12-04T12:56:17;9.23;;;6.83;;
3704;SDS011;1868;48.918;9.438;2023-12-04T12:58:49;8.20;;;6.70;;
3704;SDS011;1868;48.918;9.438;2023-12-04T13:01:19;8.80;;;7.20;;
3704;SDS011;1868;48.918;9.438;2023-12-04T13:03:53;9.40;;;6.93;;
3704;SDS011;1868;48.918;9.438;2023-12-04T13:06:26;10.23;;;7.03;;
3704;SDS011;1868;48.918;9.438;2023-12-04T13:08:58;10.00;;;6.93;;
3704;SDS011;1868;48.918;9.438;2023-12-04T13:11:28;9.83;;;7.37;;
3704;SDS011;1868;48.918;9.438;2023-12-04T13:13:58;9.67;;;6.47;;
3704;SDS011;1868;48.918;9.438;2023-12-04T13:16:27;9.90;;;7.30;;
3704;SDS011;1868;48.918;9.438;2023-12-04T13:18:58;9.20;;;7.23;;
3704;SDS011;1868;48.918;9.438;2023-12-04T13:21:28;9.00;;;6.03;;
3704;SDS011;1868;48.918;9.438;2023-12-04T13:23:59;10.47;;;7.40;;
3704;SDS011;1868;48.918;9.438;2023-12-04T13:26:32;9.37;;;6.73;;
3704;SDS011;1868;48.918;9.438;2023-12-04T13:29:01;19.50;;;12.20;;
3704;SDS011;1868;48.918;9.438;2023-12-04T13:31:30;9.97;;;6.90;;
3704;SDS011;1868;48.918;9.438;2023-12-04T13:34:02;9.37;;;6.50;;
3704;SDS011;1868;48.918;9.438;2023-12-04T13:36:35;7.07;;;6.23;;
3704;SDS011;1868;48.918;9.438;2023-12-04T13:39:05;13.17;;;7.60;;
3704;SDS011;1868;48.918;9.438;2023-12-04T13:41:43;10.33;;;7.00;;
3704;SDS011;1868;48.918;9.438;2023-12-04T13:44:32;10.80;;;8.10;;
3704;SDS011;1868;48.918;9.438;2023-12-04T13:47:01;9.30;;;7.10;;
3704;SDS011;1868;48.918;9.438;2023-12-04T13:49:35;11.60;;;6.80;;
3704;SDS011;1868;48.918;9.438;2023-12-04T13:52:09;11.07;;;7.00;;
3704;SDS011;1868;48.918;9.438;2023-12-04T13:54:40;12.87;;;8.80;;
3704;SDS011;1868;48.918;9.438;2023-12-04T13:57:14;9.57;;;6.83;;
3704;SDS011;1868;48.918;9.438;2023-12-04T13:59:55;18.53;;;8.43;;
3704;SDS011;1868;48.918;9.438;2023-12-04T14:02:25;10.90;;;7.23;;
3704;SDS011;1868;48.918;9.438;2023-12-04T14:04:56;16.97;;;9.87;;
3704;SDS011;1868;48.918;9.438;2023-12-04T14:07:25;11.00;;;7.53;;
3704;SDS011;1868;48.918;9.438;2023-12-04T14:09:56;9.37;;;7.70;;
3704;SDS011;1868;48.918;9.438;2023-12-04T14:12:25;13.00;;;7.10;;
3704;SDS011;1868;48.918;9.438;2023-12-04T14:14:54;9.03;;;6.93;;
3704;SDS011;1868;48.918;9.438;2023-12-04T14:17:25;8.53;;;6.63;;
3704;SDS011;1868;48.918;9.438;2023-12-04T14:19:58;11.57;;;8.37;;
3704;SDS011;1868;48.918;9.438;2023-12-04T14:22:28;12.10;;;7.23;;
3704;SDS011;1868;48.918;9.438;2023-12-04T14:24:57;12.80;;;8.00;;
3704;SDS011;1868;48.918;9.438;2023-12-04T14:27:26;12.73;;;8.40;;
3704;SDS011;1868;48.918;9.438;2023-12-04T14:29:54;12.97;;;7.90;;
3704;SDS011;1868;48.918;9.438;2023-12-04T14:32:26;8.63;;;6.93;;
3704;SDS011;1868;48.918;9.438;2023-12-04T14:35:09;12.77;;;8.40;;
3704;SDS011;1868;48.918;9.438;2023-12-04T14:37:39;8.53;;;6.30;;
3704;SDS011;1868;48.918;9.438;2023-12-04T14:40:13;11.13;;;7.27;;
3704;SDS011;1868;48.918;9.438;2023-12-04T14:42:43;12.63;;;8.30;;
3704;SDS011;1868;48.918;9.438;2023-12-04T14:45:12;12.00;;;8.27;;
3704;SDS011;1868;48.918;9.438;2023-12-04T14:47:43;12.13;;;8.10;;
3704;SDS011;1868;48.918;9.438;2023-12-04T14:50:16;11.37;;;7.00;;
3704;SDS011;1868;48.918;9.438;2023-12-04T14:52:45;9.63;;;7.17;;
3704;SDS011;1868;48.918;9.438;2023-12-04T14:55:18;11.20;;;7.40;;
3704;SDS011;1868;48.918;9.438;2023-12-04T14:58:24;9.97;;;6.43;;
3704;SDS011;1868;48.918;9.438;2023-12-04T15:01:24;9.17;;;6.50;;
3704;SDS011;1868;48.918;9.438;2023-12-04T15:04:27;11.40;;;7.60;;
3704;SDS011;1868;48.918;9.438;2023-12-04T15:07:16;10.20;;;6.60;;
3704;SDS011;1868;48.918;9.438;2023-12-04T15:10:11;12.40;;;7.00;;
3704;SDS011;1868;48.918;9.438;2023-12-04T15:13:07;9.67;;;6.90;;
3704;SDS011;1868;48.918;9.438;2023-12-04T15:16:05;11.67;;;7.63;;
3704;SDS011;1868;48.918;9.438;2023-12-04T15:19:09;8.40;;;6.67;;
3704;SDS011;1868;48.918;9.438;2023-12-04T15:21:55;13.67;;;7.50;;
3704;SDS011;1868;48.918;9.438;2023-12-04T15:24:25;11.73;;;7.20;;
3704;SDS011;1868;48.918;9.438;2023-12-04T15:26:54;13.40;;;7.47;;
3704;SDS011;1868;48.918;9.438;2023-12-04T15:29:23;10.50;;;7.47;;
3704;SDS011;1868;48.918;9.438;2023-12-04T15:31:54;16.50;;;9.60;;
3704;SDS011;1868;48.918;9.438;2023-12-04T15:34:24;29.60;;;16.50;;
3704;SDS011;1868;48.918;9.438;2023-12-04T15:36:52;78.40;;;40.50;;